createdAt,value
2023-03-26T00:00:54.347Z,0.50
2023-03-26T00:03:22.492Z,0.20
2023-03-26T00:05:50.205Z,0.20
2023-03-26T00:08:18.173Z,0.20
2023-03-26T00:10:46.110Z,0.20
2023-03-26T00:13:13.869Z,0.30
2023-03-26T00:15:41.377Z,0.25
2023-03-26T00:18:09.361Z,0.20
2023-03-26T00:20:38.480Z,0.30
2023-03-26T00:23:06.230Z,0.22
2023-03-26T00:25:34.894Z,0.27
2023-03-26T00:28:03.969Z,0.20
2023-03-26T00:30:31.675Z,0.30
2023-03-26T00:32:59.334Z,0.30
2023-03-26T00:35:26.919Z,0.30
2023-03-26T00:37:54.468Z,0.30
2023-03-26T00:40:23.472Z,0.20
2023-03-26T00:42:51.229Z,0.35
2023-03-26T00:45:21.401Z,0.20
2023-03-26T00:47:49.149Z,0.28
2023-03-26T00:50:16.834Z,0.20
2023-03-26T00:52:47.355Z,0.40
2023-03-26T00:55:16.219Z,0.10
2023-03-26T00:57:46.120Z,0.30
2023-03-26T01:00:17.194Z,0.30
2023-03-26T01:02:45.261Z,0.20
2023-03-26T01:05:31.741Z,0.20
2023-03-26T01:10:50.904Z,0.10
2023-03-26T01:13:19.733Z,0.20
2023-03-26T01:15:51.213Z,0.30
2023-03-26T01:18:22.237Z,0.20
2023-03-26T01:20:50.355Z,0.20
2023-03-26T01:23:24.473Z,0.20
2023-03-26T01:25:55.943Z,0.20
2023-03-26T01:28:23.653Z,0.20
2023-03-26T01:30:51.932Z,0.30
2023-03-26T01:33:29.992Z,0.30
2023-03-26T01:35:57.874Z,0.30
2023-03-26T01:38:29.297Z,0.20
2023-03-26T01:41:00.068Z,0.20
2023-03-26T01:43:33.864Z,0.22
2023-03-26T01:46:02.000Z,0.30
2023-03-26T01:48:31.309Z,0.20
2023-03-26T01:50:58.966Z,0.20
2023-03-26T01:53:26.421Z,0.27
2023-03-26T01:55:56.130Z,0.20
2023-03-26T01:58:29.256Z,0.20
2023-03-26T02:01:04.133Z,0.20
2023-03-26T02:03:32.372Z,0.25
2023-03-26T02:06:06.213Z,0.53
2023-03-26T02:08:38.469Z,0.25
2023-03-26T02:11:11.530Z,0.30
2023-03-26T02:13:39.964Z,0.32
2023-03-26T02:16:08.498Z,0.30
2023-03-26T02:18:36.838Z,0.50
2023-03-26T02:21:05.568Z,0.30
2023-03-26T02:23:35.971Z,0.40
2023-03-26T02:26:06.495Z,0.30
2023-03-26T02:28:34.127Z,0.30
2023-03-26T02:31:02.084Z,0.30
2023-03-26T02:33:30.177Z,0.20
2023-03-26T02:36:02.175Z,0.20
2023-03-26T02:38:30.400Z,0.20
2023-03-26T02:40:57.938Z,0.30
2023-03-26T02:43:25.509Z,0.30
2023-03-26T02:45:53.315Z,0.22
2023-03-26T02:48:21.656Z,0.40
2023-03-26T02:50:50.304Z,0.30
2023-03-26T02:53:17.809Z,0.25
2023-03-26T02:55:45.473Z,0.33
2023-03-26T02:58:17.650Z,0.20
2023-03-26T03:00:47.007Z,0.20
2023-03-26T03:03:17.245Z,0.30
2023-03-26T03:05:44.889Z,0.30
2023-03-26T03:08:13.449Z,0.20
2023-03-26T03:10:41.271Z,0.30
2023-03-26T03:13:08.842Z,0.30
2023-03-26T03:15:36.383Z,0.40
2023-03-26T03:18:04.070Z,0.30
2023-03-26T03:20:31.674Z,0.37
2023-03-26T03:22:59.324Z,0.40
2023-03-26T03:25:26.856Z,0.30
2023-03-26T03:27:54.601Z,0.30
2023-03-26T03:30:22.135Z,0.30
2023-03-26T03:32:49.727Z,0.27
2023-03-26T03:35:17.413Z,0.30
2023-03-26T03:37:45.106Z,0.40
2023-03-26T03:40:13.379Z,0.20
2023-03-26T03:42:40.939Z,0.30
2023-03-26T03:45:08.943Z,0.20
2023-03-26T03:47:36.461Z,0.20
2023-03-26T03:50:04.500Z,0.20
2023-03-26T03:52:34.496Z,0.40
2023-03-26T03:55:03.700Z,0.20
2023-03-26T03:57:33.597Z,0.20
2023-03-26T04:00:01.545Z,0.30
2023-03-26T04:02:34.950Z,0.20
2023-03-26T04:05:03.434Z,0.30
2023-03-26T04:07:32.224Z,0.17
2023-03-26T04:10:02.043Z,0.30
2023-03-26T04:12:29.784Z,0.20
2023-03-26T04:14:57.348Z,0.30
2023-03-26T04:17:24.907Z,0.40
2023-03-26T04:19:55.189Z,0.22
2023-03-26T04:22:23.638Z,0.30
2023-03-26T04:24:54.505Z,0.20
2023-03-26T04:27:24.644Z,0.32
2023-03-26T04:29:55.173Z,0.30
2023-03-26T04:32:26.607Z,0.40
2023-03-26T04:34:54.349Z,0.60
2023-03-26T04:37:24.817Z,0.50
2023-03-26T04:39:52.434Z,0.40
2023-03-26T04:42:20.058Z,0.30
2023-03-26T04:44:50.929Z,0.32
2023-03-26T04:47:21.497Z,0.30
2023-03-26T04:49:49.089Z,0.30
2023-03-26T04:52:16.605Z,0.25
2023-03-26T04:54:44.422Z,0.20
2023-03-26T04:57:22.506Z,0.63
2023-03-26T04:59:50.258Z,1.10
2023-03-26T05:02:17.998Z,0.90
2023-03-26T05:04:46.104Z,0.70
2023-03-26T05:07:16.116Z,0.35
2023-03-26T05:09:43.815Z,0.20
2023-03-26T05:12:11.268Z,0.27
2023-03-26T05:14:38.854Z,0.20
2023-03-26T05:17:06.385Z,0.35
2023-03-26T05:19:34.071Z,0.20
2023-03-26T05:22:02.484Z,0.20
2023-03-26T05:24:29.944Z,0.20
2023-03-26T05:26:57.594Z,0.20
2023-03-26T05:29:25.154Z,0.20
2023-03-26T05:31:52.628Z,0.30
2023-03-26T05:34:20.764Z,0.20
2023-03-26T05:36:48.679Z,0.30
2023-03-26T05:39:16.080Z,0.17
2023-03-26T05:41:43.781Z,0.20
2023-03-26T05:44:11.398Z,0.25
2023-03-26T05:46:39.019Z,0.20
2023-03-26T05:49:06.629Z,0.20
2023-03-26T05:51:34.562Z,0.30
2023-03-26T05:54:02.082Z,0.20
2023-03-26T05:56:29.776Z,0.20
2023-03-26T05:58:57.483Z,0.30
2023-03-26T06:01:25.660Z,0.30
2023-03-26T06:03:53.626Z,0.47
2023-03-26T06:06:21.501Z,0.20
2023-03-26T06:09:01.013Z,0.40
2023-03-26T06:11:36.865Z,0.38
2023-03-26T06:14:04.390Z,0.30
2023-03-26T06:16:31.984Z,0.30
2023-03-26T06:18:59.803Z,0.30
2023-03-26T06:21:27.645Z,0.30
2023-03-26T06:23:55.395Z,0.20
2023-03-26T06:26:22.925Z,0.33
2023-03-26T06:28:50.543Z,0.32
2023-03-26T06:31:19.356Z,0.32
2023-03-26T06:33:48.838Z,0.30
2023-03-26T06:36:16.497Z,0.50
2023-03-26T06:38:44.049Z,0.50
2023-03-26T06:41:11.466Z,0.30
2023-03-26T06:43:39.522Z,0.30
2023-03-26T06:46:07.038Z,0.60
2023-03-26T06:48:34.579Z,0.40
2023-03-26T06:51:02.103Z,0.60
2023-03-26T06:53:29.633Z,0.57
2023-03-26T06:55:57.090Z,0.55
2023-03-26T06:58:25.234Z,0.70
2023-03-26T07:00:56.225Z,1.27
2023-03-26T07:03:24.156Z,0.37
2023-03-26T07:05:51.859Z,0.30
2023-03-26T07:08:19.539Z,0.38
2023-03-26T07:10:47.487Z,0.20
2023-03-26T07:13:15.710Z,0.40
2023-03-26T07:15:43.223Z,0.40
2023-03-26T07:18:11.506Z,0.30
2023-03-26T07:20:39.146Z,0.30
2023-03-26T07:23:07.412Z,0.32
2023-03-26T07:25:35.156Z,0.60
2023-03-26T07:28:14.814Z,0.50
2023-03-26T07:31:01.731Z,0.30
2023-03-26T07:33:40.025Z,0.20
2023-03-26T07:36:22.670Z,0.20
2023-03-26T07:39:04.163Z,0.35
2023-03-26T07:41:35.340Z,0.30
2023-03-26T07:44:02.965Z,0.30
2023-03-26T07:46:36.110Z,0.32
2023-03-26T07:49:04.671Z,0.40
2023-03-26T07:51:32.498Z,1.33
2023-03-26T07:54:00.721Z,1.73
2023-03-26T07:56:48.859Z,0.82
2023-03-26T07:59:16.453Z,0.50
2023-03-26T08:01:56.646Z,0.50
2023-03-26T08:04:28.012Z,0.70
2023-03-26T08:07:01.307Z,0.90
2023-03-26T08:09:47.471Z,0.55
2023-03-26T08:12:27.029Z,1.05
2023-03-26T08:15:13.467Z,0.90
2023-03-26T08:18:13.540Z,0.68
2023-03-26T08:20:48.209Z,0.50
2023-03-26T08:23:34.336Z,0.52
2023-03-26T08:26:02.629Z,0.32
2023-03-26T08:28:42.948Z,0.70
2023-03-26T08:31:10.971Z,0.63
2023-03-26T08:33:40.778Z,0.50
2023-03-26T08:36:09.420Z,0.52
2023-03-26T08:38:36.974Z,0.63
2023-03-26T08:41:18.970Z,0.50
2023-03-26T08:43:49.642Z,0.57
2023-03-26T08:46:34.451Z,0.43
2023-03-26T08:49:04.191Z,0.60
2023-03-26T08:51:45.791Z,0.32
2023-03-26T08:54:16.634Z,0.60
2023-03-26T08:56:52.876Z,0.50
2023-03-26T08:59:39.480Z,0.40
2023-03-26T09:02:26.059Z,0.55
2023-03-26T09:05:22.861Z,0.60
2023-03-26T09:07:55.476Z,0.32
2023-03-26T09:10:32.146Z,0.50
2023-03-26T09:12:59.720Z,0.47
2023-03-26T09:15:46.998Z,0.40
2023-03-26T09:18:17.628Z,0.90
2023-03-26T09:21:04.009Z,0.80
2023-03-26T09:23:48.548Z,3.00
2023-03-26T09:26:25.435Z,3.30
2023-03-26T09:29:19.144Z,2.00
2023-03-26T09:31:46.646Z,0.50
2023-03-26T09:34:14.467Z,0.70
2023-03-26T09:36:46.770Z,0.50
2023-03-26T09:39:18.320Z,0.40
2023-03-26T09:42:08.922Z,0.50
2023-03-26T09:44:55.190Z,0.60
2023-03-26T09:47:32.471Z,0.55
2023-03-26T09:49:59.986Z,0.50
2023-03-26T09:52:44.616Z,0.50
2023-03-26T09:55:21.680Z,0.80
2023-03-26T09:57:53.916Z,0.75
2023-03-26T10:00:25.677Z,0.40
2023-03-26T10:02:58.188Z,0.20
2023-03-26T10:05:25.759Z,0.30
2023-03-26T10:08:03.367Z,0.25
2023-03-26T10:10:32.833Z,0.20
2023-03-26T10:13:14.046Z,0.20
2023-03-26T10:16:01.552Z,0.40
2023-03-26T10:18:32.613Z,0.20
2023-03-26T10:21:18.755Z,0.20
2023-03-26T10:24:01.499Z,0.20
2023-03-26T10:26:29.028Z,0.20
2023-03-26T10:29:15.097Z,0.30
2023-03-26T10:31:51.678Z,0.20
2023-03-26T10:34:44.568Z,0.30
2023-03-26T10:37:21.270Z,0.20
2023-03-26T10:39:49.756Z,0.20
2023-03-26T10:42:29.503Z,0.30
2023-03-26T10:45:15.909Z,0.30
2023-03-26T10:47:56.116Z,0.30
2023-03-26T10:50:29.907Z,0.30
2023-03-26T10:53:02.267Z,0.40
2023-03-26T10:55:32.842Z,0.30
2023-03-26T10:58:01.400Z,0.40
2023-03-26T11:00:30.098Z,0.40
2023-03-26T11:03:03.740Z,0.43
2023-03-26T11:05:44.752Z,0.30
2023-03-26T11:08:16.279Z,0.35
2023-03-26T11:10:46.816Z,0.45
2023-03-26T11:13:16.762Z,0.30
2023-03-26T11:16:03.190Z,0.38
2023-03-26T11:18:40.203Z,0.35
2023-03-26T11:21:40.439Z,0.30
2023-03-26T11:24:08.236Z,0.35
2023-03-26T11:26:41.346Z,0.30
2023-03-26T11:29:31.077Z,0.43
2023-03-26T11:32:00.752Z,0.35
2023-03-26T11:34:29.326Z,0.30
2023-03-26T11:36:57.464Z,0.35
2023-03-26T11:39:26.475Z,0.45
2023-03-26T11:41:55.581Z,0.40
2023-03-26T11:44:37.148Z,0.40
2023-03-26T11:47:08.831Z,0.30
2023-03-26T11:49:37.101Z,0.35
2023-03-26T11:52:07.625Z,0.40
2023-03-26T11:54:35.123Z,0.20
2023-03-26T11:57:07.363Z,0.40
2023-03-26T11:59:45.286Z,0.30
2023-03-26T12:02:35.614Z,0.30
2023-03-26T12:05:20.409Z,0.30
2023-03-26T12:07:51.264Z,0.20
2023-03-26T12:10:46.279Z,0.38
2023-03-26T12:13:34.416Z,0.30
2023-03-26T12:16:10.635Z,0.20
2023-03-26T12:18:39.812Z,0.30
2023-03-26T12:21:11.955Z,0.20
2023-03-26T12:23:56.951Z,0.30
2023-03-26T12:26:31.864Z,0.30
2023-03-26T12:29:00.907Z,0.40
2023-03-26T12:31:30.522Z,0.30
2023-03-26T12:34:06.056Z,0.30
2023-03-26T12:36:34.004Z,0.30
2023-03-26T12:40:05.942Z,0.30
2023-03-26T12:43:51.577Z,0.50
2023-03-26T12:44:59.186Z,0.32
2023-03-26T12:47:58.515Z,0.60
2023-03-26T12:50:34.145Z,0.37
2023-03-26T12:53:22.880Z,0.60
2023-03-26T12:56:09.473Z,0.52
2023-03-26T12:58:55.095Z,0.50
2023-03-26T13:01:33.248Z,0.45
2023-03-26T13:04:19.668Z,0.53
2023-03-26T13:07:01.222Z,0.63
2023-03-26T13:09:51.008Z,0.77
2023-03-26T13:12:34.061Z,0.80
2023-03-26T13:15:01.554Z,1.20
2023-03-26T13:17:29.296Z,0.87
2023-03-26T13:19:59.693Z,0.90
2023-03-26T13:22:27.467Z,1.15
2023-03-26T13:25:01.222Z,1.30
2023-03-26T13:27:51.743Z,0.90
2023-03-26T13:30:24.233Z,0.80
2023-03-26T13:33:01.254Z,0.90
2023-03-26T13:35:40.778Z,0.95
2023-03-26T13:38:26.854Z,0.68
2023-03-26T13:40:54.793Z,0.90
2023-03-26T13:43:33.668Z,0.73
2023-03-26T13:46:10.923Z,0.90
2023-03-26T13:48:48.210Z,0.90
2023-03-26T13:51:19.307Z,0.90
2023-03-26T13:54:01.488Z,1.02
2023-03-26T13:56:31.755Z,0.77
2023-03-26T13:59:10.528Z,0.90
2023-03-26T14:01:43.453Z,1.10
2023-03-26T14:04:17.798Z,0.80
2023-03-26T14:06:47.990Z,1.00
2023-03-26T14:09:21.709Z,1.10
2023-03-26T14:11:58.855Z,0.80
2023-03-26T14:14:35.092Z,0.80
2023-03-26T14:17:07.656Z,1.05
2023-03-26T14:19:50.060Z,0.85
2023-03-26T14:22:33.795Z,1.00
2023-03-26T14:25:08.527Z,1.50
2023-03-26T14:27:59.514Z,1.03
2023-03-26T14:30:56.672Z,1.00
2023-03-26T14:33:34.261Z,1.20
2023-03-26T14:36:11.623Z,1.20
2023-03-26T14:38:54.317Z,1.25
2023-03-26T14:41:25.630Z,1.50
2023-03-26T14:43:59.030Z,1.27
2023-03-26T14:46:42.031Z,1.40
2023-03-26T14:49:29.001Z,1.45
2023-03-26T14:51:59.630Z,1.35
2023-03-26T14:54:27.677Z,1.33
2023-03-26T14:57:14.240Z,1.52
2023-03-26T15:00:07.369Z,1.30
2023-03-26T15:03:13.875Z,1.63
2023-03-26T15:05:46.664Z,1.20
2023-03-26T15:08:34.239Z,1.50
2023-03-26T15:11:21.404Z,1.40
2023-03-26T15:14:09.204Z,1.27
2023-03-26T15:16:44.976Z,1.20
2023-03-26T15:19:12.707Z,1.42
2023-03-26T15:21:43.280Z,1.30
2023-03-26T15:24:29.802Z,1.20
2023-03-26T15:26:57.524Z,1.93
2023-03-26T15:29:37.232Z,1.52
2023-03-26T15:32:22.475Z,2.28
2023-03-26T15:34:54.722Z,1.45
2023-03-26T15:37:31.482Z,1.15
2023-03-26T15:40:08.647Z,0.80
2023-03-26T15:42:39.282Z,1.23
2023-03-26T15:45:25.629Z,1.42
2023-03-26T15:48:11.144Z,0.90
2023-03-26T15:51:00.725Z,1.70
2023-03-26T15:53:28.948Z,1.13
2023-03-26T15:56:00.693Z,1.42
2023-03-26T15:58:42.209Z,1.50
2023-03-26T16:01:19.178Z,1.77
2023-03-26T16:04:02.495Z,1.25
2023-03-26T16:06:31.445Z,1.10
2023-03-26T16:09:08.695Z,1.50
2023-03-26T16:11:49.885Z,1.10
2023-03-26T16:14:23.161Z,1.52
2023-03-26T16:16:52.834Z,1.05
2023-03-26T16:19:20.792Z,1.63
2023-03-26T16:22:01.582Z,1.27
2023-03-26T16:24:38.693Z,1.38
2023-03-26T16:27:08.355Z,2.38
2023-03-26T16:30:01.918Z,1.30
2023-03-26T16:32:30.209Z,1.63
2023-03-26T16:34:58.239Z,1.60
2023-03-26T16:37:36.208Z,1.60
2023-03-26T16:40:20.890Z,1.40
2023-03-26T16:43:07.399Z,1.52
2023-03-26T16:45:44.249Z,1.40
2023-03-26T16:48:31.721Z,1.50
2023-03-26T16:50:59.443Z,1.42
2023-03-26T16:53:41.767Z,3.03
2023-03-26T16:56:12.537Z,4.07
2023-03-26T16:58:49.341Z,3.70
2023-03-26T17:01:23.069Z,3.75
2023-03-26T17:03:53.308Z,2.47
2023-03-26T17:06:23.379Z,1.67
2023-03-26T17:08:59.302Z,1.75
2023-03-26T17:11:38.448Z,2.70
2023-03-26T17:14:09.426Z,6.50
2023-03-26T17:16:46.041Z,5.57
2023-03-26T17:19:24.749Z,4.72
2023-03-26T17:21:59.991Z,3.53
2023-03-26T17:24:33.892Z,1.30
2023-03-26T17:27:09.848Z,1.58
2023-03-26T17:29:52.170Z,1.00
2023-03-26T17:32:21.636Z,12.63
2023-03-26T17:34:52.466Z,4.80
2023-03-26T17:37:20.522Z,1.70
2023-03-26T17:40:12.278Z,1.58
2023-03-26T17:42:40.409Z,1.48
2023-03-26T17:45:17.731Z,0.50
2023-03-26T17:47:55.036Z,0.80
2023-03-26T17:50:44.175Z,0.70
2023-03-26T17:53:22.324Z,0.57
2023-03-26T17:55:51.265Z,0.70
2023-03-26T17:58:34.933Z,0.57
2023-03-26T18:01:07.957Z,0.63
2023-03-26T18:03:36.569Z,0.73
2023-03-26T18:06:08.404Z,0.82
2023-03-26T18:09:12.088Z,0.90
2023-03-26T18:11:52.196Z,0.80
2023-03-26T18:14:29.017Z,0.73
2023-03-26T18:16:58.034Z,0.60
2023-03-26T18:19:26.638Z,0.80
2023-03-26T18:21:55.159Z,1.55
2023-03-26T18:24:27.799Z,13.15
2023-03-26T18:27:14.836Z,8.40
2023-03-26T18:30:01.963Z,12.90
2023-03-26T18:32:35.746Z,9.18
2023-03-26T18:35:18.842Z,3.92
2023-03-26T18:37:47.479Z,6.80
2023-03-26T18:40:20.185Z,5.15
2023-03-26T18:42:48.122Z,3.10
2023-03-26T18:45:34.927Z,2.60
2023-03-26T18:48:05.743Z,2.95
2023-03-26T18:50:36.973Z,3.45
2023-03-26T18:53:05.102Z,4.72
2023-03-26T18:55:34.487Z,2.23
2023-03-26T18:58:07.549Z,2.10
2023-03-26T19:00:36.748Z,2.90
2023-03-26T19:03:08.225Z,3.03
2023-03-26T19:05:36.515Z,2.90
2023-03-26T19:08:04.937Z,3.30
2023-03-26T19:10:34.756Z,3.30
2023-03-26T19:13:03.229Z,2.95
2023-03-26T19:15:34.207Z,2.90
2023-03-26T19:18:07.557Z,2.70
2023-03-26T19:20:38.930Z,2.30
2023-03-26T19:23:09.272Z,2.28
2023-03-26T19:25:42.021Z,1.73
2023-03-26T19:28:17.969Z,1.35
2023-03-26T19:30:46.094Z,1.15
2023-03-26T19:33:16.377Z,1.00
2023-03-26T19:35:44.564Z,0.98
2023-03-26T19:38:26.124Z,1.00
2023-03-26T19:40:55.495Z,1.08
2023-03-26T19:43:24.277Z,1.02
2023-03-26T19:48:46.292Z,1.10
2023-03-26T19:51:18.279Z,0.90
2023-03-26T19:51:21.117Z,1.10
2023-03-26T19:53:55.607Z,0.80
2023-03-26T19:56:23.460Z,0.90
2023-03-26T19:58:51.749Z,0.87
2023-03-26T20:01:21.042Z,0.88
2023-03-26T20:03:49.848Z,0.90
2023-03-26T20:06:18.805Z,0.90
2023-03-26T20:08:47.191Z,0.77
2023-03-26T20:11:21.188Z,0.90
2023-03-26T20:13:49.019Z,0.57
2023-03-26T20:16:19.641Z,0.63
2023-03-26T20:18:47.762Z,0.65
2023-03-26T20:21:15.949Z,0.60
2023-03-26T20:23:44.020Z,0.40
2023-03-26T20:26:12.466Z,0.57
2023-03-26T20:28:47.690Z,0.50
2023-03-26T20:31:17.169Z,0.40
2023-03-26T20:33:46.131Z,0.57
2023-03-26T20:36:14.065Z,0.40
2023-03-26T20:39:01.954Z,0.60
2023-03-26T20:41:29.810Z,0.40
2023-03-26T20:43:57.296Z,0.55
2023-03-26T20:46:30.911Z,0.40
2023-03-26T20:48:59.940Z,0.40
2023-03-26T20:51:30.746Z,0.40
2023-03-26T20:53:58.682Z,0.57
2023-03-26T20:56:27.074Z,0.60
2023-03-26T20:59:09.776Z,0.55
2023-03-26T21:01:38.975Z,0.60
2023-03-26T21:04:06.946Z,0.70
2023-03-26T21:06:34.516Z,0.65
2023-03-26T21:09:02.365Z,0.52
2023-03-26T21:11:48.671Z,0.60
2023-03-26T21:14:39.164Z,0.70
2023-03-26T21:17:08.175Z,0.63
2023-03-26T21:19:36.279Z,0.55
2023-03-26T21:22:06.497Z,0.40
2023-03-26T21:24:37.048Z,0.47
2023-03-26T21:27:09.773Z,0.50
2023-03-26T21:29:37.709Z,0.60
2023-03-26T21:32:05.831Z,0.60
2023-03-26T21:34:34.195Z,0.90
2023-03-26T21:37:03.034Z,0.70
2023-03-26T21:39:30.657Z,1.47
2023-03-26T21:42:05.479Z,1.90
2023-03-26T21:44:34.076Z,2.35
2023-03-26T21:47:01.744Z,2.00
2023-03-26T21:49:29.609Z,0.60
2023-03-26T21:51:57.790Z,0.50
2023-03-26T21:54:26.569Z,0.55
2023-03-26T21:56:59.176Z,0.60
2023-03-26T21:59:32.752Z,0.80
2023-03-26T22:02:03.229Z,0.73
2023-03-26T22:04:37.683Z,0.60
2023-03-26T22:07:06.604Z,0.70
2023-03-26T22:09:36.881Z,0.80
2023-03-26T22:12:05.459Z,0.50
2023-03-26T22:14:34.485Z,0.85
2023-03-26T22:17:02.104Z,1.00
2023-03-26T22:19:30.570Z,0.80
2023-03-26T22:21:58.424Z,0.73
2023-03-26T22:24:26.331Z,0.70
2023-03-26T22:26:53.792Z,0.70
2023-03-26T22:29:21.526Z,0.43
2023-03-26T22:31:49.093Z,1.00
2023-03-26T22:34:16.774Z,1.35
2023-03-26T22:36:44.306Z,0.70
2023-03-26T22:39:12.333Z,0.73
2023-03-26T22:41:40.261Z,0.67
2023-03-26T22:44:19.244Z,0.80
2023-03-26T22:46:50.621Z,0.50
2023-03-26T22:49:18.448Z,0.52
2023-03-26T22:51:46.907Z,0.50
2023-03-26T22:54:14.695Z,0.60
2023-03-26T22:56:43.604Z,0.65
2023-03-26T22:59:11.261Z,0.50
2023-03-26T23:01:39.061Z,0.47
2023-03-26T23:04:07.108Z,0.50
2023-03-26T23:06:34.688Z,0.50
2023-03-26T23:09:02.281Z,0.80
2023-03-26T23:11:31.121Z,0.90
2023-03-26T23:13:58.802Z,0.60
2023-03-26T23:16:26.612Z,0.73
2023-03-26T23:18:54.210Z,0.80
2023-03-26T23:21:22.434Z,0.90
2023-03-26T23:23:50.496Z,1.30
2023-03-26T23:26:21.468Z,1.10
2023-03-26T23:28:51.134Z,1.30
2023-03-26T23:31:18.867Z,0.90
2023-03-26T23:33:46.792Z,0.82
2023-03-26T23:36:18.394Z,0.80
2023-03-26T23:38:46.793Z,0.60
2023-03-26T23:41:15.289Z,0.70
2023-03-26T23:43:53.776Z,0.40
2023-03-26T23:46:30.316Z,0.38
2023-03-26T23:49:00.115Z,0.43
2023-03-26T23:51:30.341Z,0.32
2023-03-26T23:53:58.466Z,0.60
2023-03-26T23:56:27.808Z,0.60
2023-03-26T23:58:55.408Z,0.30
